Airfield :
LOGIN :

Register | Disclaimer

   EN    FR    IT 

 










Legend :    VFR   Marginal VFR   IFR   Intensive IFR   Very Intensive IFR
Visi :
Ceiling :
>= 8 km
>= 3000ft
5 to 8 km
1000 to 3000 ft
1500m to 5 km
500 to 1000 ft
800 to 1500m
200 to 500 ft
< 800m
< 200 ft
Symbols :   Thunderstorms  Fog  Heavy snow  Heavy precipitations  Wind > 20 kt
SIGMETs :     Misc.  Thunderstorms  Icing  Turbulence  Mountain Waves  Volcanic Ashes






- Airport Elevation : 370 ft


EBBE - Beauvechain AB

EXPIRED METARs :
  • 200025Z AUTO 28005KT 9999 FEW029/// 03/02 Q1026 BLU
  • 192355Z AUTO 27005KT 9999 FEW024/// SCT042/// BKN060/// 04/03 Q1026 BLU
  • 192325Z AUTO 29004KT 9000 FEW035/// BKN060/// 04/03 Q1025 BLU

TAF TAF EBBE
Valid from the 19 at 19:00 until the 20 at 07:00 UTC


191541Z 1919/2007 28008KT 5000 -RA BKN010 BKN015
TEMPO 1919/1922 3000 -RADZ SCT006 BKN012
BECMG 1921/1923 32010KT 9999 NSW SCT018
TEMPO 2003/2007 7000 SCT012 BKN030



MET'MAP, your aeronautical weather chart ! - Copyright ORBIFLY December 2007 - Disclaimer

ORBIFLY MET'MAP TEAM :

Programming & Development : Alexandra Zaïnal
Concept & original design : Baudouin d'Aumeries
Assistance for programming : Marc-Olivier Méhu
Technical & hardware support : Manuel Goepfert

Contact : metmap@orbifly.com




SOURCES & CREDITS :

   NOAA